sensor_id;sensor_type;location;lat;lon;timestamp;P1;durP1;ratioP1;P2;durP2;ratioP2
79644;SDS011;69117;47.148;18.954;2023-05-16T00:00:23;6.10;;;3.08;;
79644;SDS011;69117;47.148;18.954;2023-05-16T00:03:28;5.53;;;3.55;;
79644;SDS011;69117;47.148;18.954;2023-05-16T00:06:31;4.80;;;3.08;;
79644;SDS011;69117;47.148;18.954;2023-05-16T00:09:33;5.78;;;3.47;;
79644;SDS011;69117;47.148;18.954;2023-05-16T00:12:34;5.93;;;3.70;;
79644;SDS011;69117;47.148;18.954;2023-05-16T00:15:37;5.57;;;3.22;;
79644;SDS011;69117;47.148;18.954;2023-05-16T00:18:39;5.00;;;3.20;;
79644;SDS011;69117;47.148;18.954;2023-05-16T00:21:41;5.78;;;3.20;;
79644;SDS011;69117;47.148;18.954;2023-05-16T00:24:44;5.18;;;3.30;;
79644;SDS011;69117;47.148;18.954;2023-05-16T00:27:46;7.32;;;3.47;;
79644;SDS011;69117;47.148;18.954;2023-05-16T00:30:48;6.28;;;3.50;;
79644;SDS011;69117;47.148;18.954;2023-05-16T00:33:50;6.35;;;3.70;;
79644;SDS011;69117;47.148;18.954;2023-05-16T00:36:52;5.88;;;3.17;;
79644;SDS011;69117;47.148;18.954;2023-05-16T00:39:54;5.22;;;3.20;;
79644;SDS011;69117;47.148;18.954;2023-05-16T00:42:55;4.20;;;2.97;;
79644;SDS011;69117;47.148;18.954;2023-05-16T00:45:57;4.40;;;2.65;;
79644;SDS011;69117;47.148;18.954;2023-05-16T00:48:58;5.57;;;3.28;;
79644;SDS011;69117;47.148;18.954;2023-05-16T00:52:00;5.57;;;3.58;;
79644;SDS011;69117;47.148;18.954;2023-05-16T00:55:03;6.45;;;3.40;;
79644;SDS011;69117;47.148;18.954;2023-05-16T00:58:05;5.00;;;3.10;;
79644;SDS011;69117;47.148;18.954;2023-05-16T01:01:07;5.15;;;2.92;;
79644;SDS011;69117;47.148;18.954;2023-05-16T01:04:09;6.13;;;3.53;;
79644;SDS011;69117;47.148;18.954;2023-05-16T01:07:11;5.70;;;3.45;;
79644;SDS011;69117;47.148;18.954;2023-05-16T01:10:12;6.45;;;3.92;;
79644;SDS011;69117;47.148;18.954;2023-05-16T01:13:21;9.25;;;3.83;;
79644;SDS011;69117;47.148;18.954;2023-05-16T01:16:41;5.68;;;3.40;;
79644;SDS011;69117;47.148;18.954;2023-05-16T01:26:27;8.48;;;3.90;;
79644;SDS011;69117;47.148;18.954;2023-05-16T01:29:30;6.20;;;3.92;;
79644;SDS011;69117;47.148;18.954;2023-05-16T01:32:32;10.55;;;3.95;;
79644;SDS011;69117;47.148;18.954;2023-05-16T01:35:35;7.38;;;3.75;;
79644;SDS011;69117;47.148;18.954;2023-05-16T01:39:10;7.18;;;4.05;;
79644;SDS011;69117;47.148;18.954;2023-05-16T01:42:20;6.03;;;3.70;;
79644;SDS011;69117;47.148;18.954;2023-05-16T01:45:28;7.40;;;3.85;;
79644;SDS011;69117;47.148;18.954;2023-05-16T01:48:50;5.53;;;3.30;;
79644;SDS011;69117;47.148;18.954;2023-05-16T01:51:55;7.47;;;4.38;;
79644;SDS011;69117;47.148;18.954;2023-05-16T01:55:06;8.95;;;4.97;;
79644;SDS011;69117;47.148;18.954;2023-05-16T01:58:12;10.07;;;6.32;;
79644;SDS011;69117;47.148;18.954;2023-05-16T02:01:15;9.55;;;5.05;;
79644;SDS011;69117;47.148;18.954;2023-05-16T02:04:17;9.60;;;5.68;;
79644;SDS011;69117;47.148;18.954;2023-05-16T02:07:19;10.20;;;5.63;;
79644;SDS011;69117;47.148;18.954;2023-05-16T02:10:21;11.57;;;5.75;;
79644;SDS011;69117;47.148;18.954;2023-05-16T02:13:23;13.02;;;6.10;;
79644;SDS011;69117;47.148;18.954;2023-05-16T02:16:24;9.48;;;5.80;;
79644;SDS011;69117;47.148;18.954;2023-05-16T02:19:26;10.82;;;5.20;;
79644;SDS011;69117;47.148;18.954;2023-05-16T02:22:28;12.15;;;6.85;;
79644;SDS011;69117;47.148;18.954;2023-05-16T02:25:29;12.23;;;6.07;;
79644;SDS011;69117;47.148;18.954;2023-05-16T02:28:31;20.40;;;6.47;;
79644;SDS011;69117;47.148;18.954;2023-05-16T02:31:33;25.13;;;8.10;;
79644;SDS011;69117;47.148;18.954;2023-05-16T02:34:37;23.08;;;9.48;;
79644;SDS011;69117;47.148;18.954;2023-05-16T02:37:39;27.75;;;8.07;;
79644;SDS011;69117;47.148;18.954;2023-05-16T02:40:40;22.23;;;7.57;;
79644;SDS011;69117;47.148;18.954;2023-05-16T02:43:42;16.77;;;6.82;;
79644;SDS011;69117;47.148;18.954;2023-05-16T02:46:47;23.33;;;6.57;;
79644;SDS011;69117;47.148;18.954;2023-05-16T02:49:48;22.60;;;7.35;;
79644;SDS011;69117;47.148;18.954;2023-05-16T02:52:52;20.92;;;6.78;;
79644;SDS011;69117;47.148;18.954;2023-05-16T02:55:54;37.25;;;7.95;;
79644;SDS011;69117;47.148;18.954;2023-05-16T02:58:56;25.70;;;7.45;;
79644;SDS011;69117;47.148;18.954;2023-05-16T03:01:57;16.45;;;8.30;;
79644;SDS011;69117;47.148;18.954;2023-05-16T03:04:59;19.08;;;7.55;;
79644;SDS011;69117;47.148;18.954;2023-05-16T03:08:01;15.48;;;6.50;;
79644;SDS011;69117;47.148;18.954;2023-05-16T03:11:03;14.38;;;6.10;;
79644;SDS011;69117;47.148;18.954;2023-05-16T03:14:05;15.23;;;7.70;;
79644;SDS011;69117;47.148;18.954;2023-05-16T03:17:06;17.38;;;7.95;;
79644;SDS011;69117;47.148;18.954;2023-05-16T03:20:08;15.68;;;7.15;;
79644;SDS011;69117;47.148;18.954;2023-05-16T03:23:11;13.00;;;7.28;;
79644;SDS011;69117;47.148;18.954;2023-05-16T03:26:14;13.48;;;7.60;;
79644;SDS011;69117;47.148;18.954;2023-05-16T03:29:16;15.38;;;7.38;;
79644;SDS011;69117;47.148;18.954;2023-05-16T03:32:17;15.68;;;8.00;;
79644;SDS011;69117;47.148;18.954;2023-05-16T03:35:19;15.85;;;8.50;;
79644;SDS011;69117;47.148;18.954;2023-05-16T03:38:21;16.60;;;9.15;;
79644;SDS011;69117;47.148;18.954;2023-05-16T03:41:22;16.25;;;9.70;;
79644;SDS011;69117;47.148;18.954;2023-05-16T03:44:24;19.25;;;9.70;;
79644;SDS011;69117;47.148;18.954;2023-05-16T03:47:25;17.40;;;9.25;;
79644;SDS011;69117;47.148;18.954;2023-05-16T03:50:31;18.40;;;9.95;;
79644;SDS011;69117;47.148;18.954;2023-05-16T03:53:33;17.67;;;10.27;;
79644;SDS011;69117;47.148;18.954;2023-05-16T03:56:34;19.30;;;9.63;;
79644;SDS011;69117;47.148;18.954;2023-05-16T03:59:36;16.77;;;10.07;;
79644;SDS011;69117;47.148;18.954;2023-05-16T04:02:39;17.00;;;11.65;;
79644;SDS011;69117;47.148;18.954;2023-05-16T04:05:41;15.02;;;8.75;;
79644;SDS011;69117;47.148;18.954;2023-05-16T04:08:43;17.40;;;10.18;;
79644;SDS011;69117;47.148;18.954;2023-05-16T04:11:45;14.10;;;9.07;;
79644;SDS011;69117;47.148;18.954;2023-05-16T04:14:46;14.07;;;8.82;;
79644;SDS011;69117;47.148;18.954;2023-05-16T04:17:48;15.82;;;9.98;;
79644;SDS011;69117;47.148;18.954;2023-05-16T04:20:50;13.10;;;8.20;;
79644;SDS011;69117;47.148;18.954;2023-05-16T04:23:51;11.77;;;8.20;;
79644;SDS011;69117;47.148;18.954;2023-05-16T04:26:53;12.48;;;8.45;;
79644;SDS011;69117;47.148;18.954;2023-05-16T04:29:55;12.30;;;8.00;;
79644;SDS011;69117;47.148;18.954;2023-05-16T04:32:57;11.40;;;7.50;;
79644;SDS011;69117;47.148;18.954;2023-05-16T04:35:59;12.82;;;8.07;;
79644;SDS011;69117;47.148;18.954;2023-05-16T04:39:01;11.50;;;6.93;;
79644;SDS011;69117;47.148;18.954;2023-05-16T04:42:03;10.05;;;6.88;;
79644;SDS011;69117;47.148;18.954;2023-05-16T04:45:05;10.52;;;7.05;;
79644;SDS011;69117;47.148;18.954;2023-05-16T04:48:11;10.73;;;6.60;;
79644;SDS011;69117;47.148;18.954;2023-05-16T04:51:13;11.57;;;7.30;;
79644;SDS011;69117;47.148;18.954;2023-05-16T04:54:15;11.07;;;7.00;;
79644;SDS011;69117;47.148;18.954;2023-05-16T04:57:17;14.48;;;7.13;;
79644;SDS011;69117;47.148;18.954;2023-05-16T05:00:18;10.35;;;6.80;;
79644;SDS011;69117;47.148;18.954;2023-05-16T05:03:20;9.70;;;6.63;;
79644;SDS011;69117;47.148;18.954;2023-05-16T05:06:22;11.43;;;7.93;;
79644;SDS011;69117;47.148;18.954;2023-05-16T05:09:24;12.73;;;7.10;;
79644;SDS011;69117;47.148;18.954;2023-05-16T05:12:26;12.57;;;6.65;;
79644;SDS011;69117;47.148;18.954;2023-05-16T05:15:28;8.93;;;6.22;;
79644;SDS011;69117;47.148;18.954;2023-05-16T05:18:30;10.20;;;6.18;;
79644;SDS011;69117;47.148;18.954;2023-05-16T05:21:32;9.30;;;6.65;;
79644;SDS011;69117;47.148;18.954;2023-05-16T05:24:34;11.30;;;7.18;;
79644;SDS011;69117;47.148;18.954;2023-05-16T05:27:36;11.38;;;6.60;;
79644;SDS011;69117;47.148;18.954;2023-05-16T05:30:37;11.15;;;6.93;;
79644;SDS011;69117;47.148;18.954;2023-05-16T05:33:42;12.50;;;6.68;;
79644;SDS011;69117;47.148;18.954;2023-05-16T05:36:44;13.07;;;7.57;;
79644;SDS011;69117;47.148;18.954;2023-05-16T05:39:45;13.38;;;8.38;;
79644;SDS011;69117;47.148;18.954;2023-05-16T05:42:47;17.60;;;8.05;;
79644;SDS011;69117;47.148;18.954;2023-05-16T05:45:48;17.77;;;8.85;;
79644;SDS011;69117;47.148;18.954;2023-05-16T05:48:50;17.13;;;8.77;;
79644;SDS011;69117;47.148;18.954;2023-05-16T05:51:52;19.45;;;9.20;;
79644;SDS011;69117;47.148;18.954;2023-05-16T05:54:54;18.63;;;9.57;;
79644;SDS011;69117;47.148;18.954;2023-05-16T05:57:55;22.00;;;9.70;;
79644;SDS011;69117;47.148;18.954;2023-05-16T06:00:57;18.17;;;8.52;;
79644;SDS011;69117;47.148;18.954;2023-05-16T06:03:58;20.38;;;10.32;;
79644;SDS011;69117;47.148;18.954;2023-05-16T06:07:02;19.02;;;9.60;;
79644;SDS011;69117;47.148;18.954;2023-05-16T06:10:04;21.05;;;9.07;;
79644;SDS011;69117;47.148;18.954;2023-05-16T06:13:06;16.15;;;8.77;;
79644;SDS011;69117;47.148;18.954;2023-05-16T06:16:08;16.42;;;9.23;;
79644;SDS011;69117;47.148;18.954;2023-05-16T06:19:10;17.70;;;9.60;;
79644;SDS011;69117;47.148;18.954;2023-05-16T06:22:16;19.48;;;9.63;;
79644;SDS011;69117;47.148;18.954;2023-05-16T06:25:17;17.35;;;7.82;;
79644;SDS011;69117;47.148;18.954;2023-05-16T06:28:20;18.80;;;8.73;;
79644;SDS011;69117;47.148;18.954;2023-05-16T06:31:21;17.02;;;9.07;;
79644;SDS011;69117;47.148;18.954;2023-05-16T06:34:23;19.40;;;7.32;;
79644;SDS011;69117;47.148;18.954;2023-05-16T06:37:28;19.20;;;8.23;;
79644;SDS011;69117;47.148;18.954;2023-05-16T06:40:29;18.52;;;9.32;;
79644;SDS011;69117;47.148;18.954;2023-05-16T06:43:31;19.33;;;9.48;;
79644;SDS011;69117;47.148;18.954;2023-05-16T06:46:33;16.02;;;7.40;;
79644;SDS011;69117;47.148;18.954;2023-05-16T06:49:34;19.80;;;8.43;;
79644;SDS011;69117;47.148;18.954;2023-05-16T06:52:36;15.80;;;8.13;;
79644;SDS011;69117;47.148;18.954;2023-05-16T06:55:37;16.52;;;8.55;;
79644;SDS011;69117;47.148;18.954;2023-05-16T06:58:39;14.63;;;7.25;;
79644;SDS011;69117;47.148;18.954;2023-05-16T07:01:41;12.05;;;6.53;;
79644;SDS011;69117;47.148;18.954;2023-05-16T07:04:43;13.18;;;7.13;;
79644;SDS011;69117;47.148;18.954;2023-05-16T07:07:44;13.05;;;5.57;;
79644;SDS011;69117;47.148;18.954;2023-05-16T07:10:46;12.00;;;5.75;;
79644;SDS011;69117;47.148;18.954;2023-05-16T07:13:48;13.07;;;5.93;;
79644;SDS011;69117;47.148;18.954;2023-05-16T07:16:50;12.02;;;6.38;;
79644;SDS011;69117;47.148;18.954;2023-05-16T07:19:51;13.02;;;6.40;;
79644;SDS011;69117;47.148;18.954;2023-05-16T07:22:53;10.73;;;5.25;;
79644;SDS011;69117;47.148;18.954;2023-05-16T07:25:57;9.07;;;5.32;;
79644;SDS011;69117;47.148;18.954;2023-05-16T07:28:59;9.15;;;4.70;;
79644;SDS011;69117;47.148;18.954;2023-05-16T07:32:05;8.15;;;5.10;;
79644;SDS011;69117;47.148;18.954;2023-05-16T07:35:08;7.15;;;4.13;;
79644;SDS011;69117;47.148;18.954;2023-05-16T07:38:10;8.88;;;4.65;;
79644;SDS011;69117;47.148;18.954;2023-05-16T07:41:12;8.30;;;4.22;;
79644;SDS011;69117;47.148;18.954;2023-05-16T07:44:13;8.98;;;4.45;;
79644;SDS011;69117;47.148;18.954;2023-05-16T07:47:15;7.03;;;3.90;;
79644;SDS011;69117;47.148;18.954;2023-05-16T07:50:17;7.97;;;3.47;;
79644;SDS011;69117;47.148;18.954;2023-05-16T07:53:19;6.43;;;3.50;;
79644;SDS011;69117;47.148;18.954;2023-05-16T07:56:21;7.22;;;3.67;;
79644;SDS011;69117;47.148;18.954;2023-05-16T07:59:24;5.40;;;3.70;;
79644;SDS011;69117;47.148;18.954;2023-05-16T08:02:25;8.15;;;4.25;;
79644;SDS011;69117;47.148;18.954;2023-05-16T08:05:31;5.82;;;3.25;;
79644;SDS011;69117;47.148;18.954;2023-05-16T08:08:33;7.07;;;3.97;;
79644;SDS011;69117;47.148;18.954;2023-05-16T08:11:34;6.38;;;3.53;;
79644;SDS011;69117;47.148;18.954;2023-05-16T08:14:36;6.60;;;3.28;;
79644;SDS011;69117;47.148;18.954;2023-05-16T08:17:38;8.45;;;3.80;;
79644;SDS011;69117;47.148;18.954;2023-05-16T08:20:40;5.65;;;3.25;;
79644;SDS011;69117;47.148;18.954;2023-05-16T08:23:42;5.68;;;2.75;;
79644;SDS011;69117;47.148;18.954;2023-05-16T08:26:44;5.88;;;3.20;;
79644;SDS011;69117;47.148;18.954;2023-05-16T08:29:45;4.90;;;2.95;;
79644;SDS011;69117;47.148;18.954;2023-05-16T08:32:47;3.90;;;2.42;;
79644;SDS011;69117;47.148;18.954;2023-05-16T08:35:49;5.43;;;2.40;;
79644;SDS011;69117;47.148;18.954;2023-05-16T08:38:53;5.07;;;2.75;;
79644;SDS011;69117;47.148;18.954;2023-05-16T08:41:55;5.50;;;2.78;;
79644;SDS011;69117;47.148;18.954;2023-05-16T08:44:57;5.05;;;2.53;;
79644;SDS011;69117;47.148;18.954;2023-05-16T08:47:59;3.22;;;2.47;;
79644;SDS011;69117;47.148;18.954;2023-05-16T08:51:02;4.13;;;2.40;;
79644;SDS011;69117;47.148;18.954;2023-05-16T08:54:09;2.88;;;1.80;;
79644;SDS011;69117;47.148;18.954;2023-05-16T08:57:13;3.63;;;1.92;;
79644;SDS011;69117;47.148;18.954;2023-05-16T09:00:17;3.40;;;2.13;;
79644;SDS011;69117;47.148;18.954;2023-05-16T09:03:19;2.65;;;2.15;;
79644;SDS011;69117;47.148;18.954;2023-05-16T09:06:23;4.00;;;2.03;;
79644;SDS011;69117;47.148;18.954;2023-05-16T09:09:26;2.28;;;1.33;;
79644;SDS011;69117;47.148;18.954;2023-05-16T09:12:28;2.58;;;1.48;;
79644;SDS011;69117;47.148;18.954;2023-05-16T09:15:31;2.80;;;1.42;;
79644;SDS011;69117;47.148;18.954;2023-05-16T09:18:34;2.55;;;1.73;;
79644;SDS011;69117;47.148;18.954;2023-05-16T09:21:37;3.20;;;1.85;;
79644;SDS011;69117;47.148;18.954;2023-05-16T09:24:43;3.17;;;1.70;;
79644;SDS011;69117;47.148;18.954;2023-05-16T09:27:58;2.65;;;1.77;;
79644;SDS011;69117;47.148;18.954;2023-05-16T09:31:02;2.75;;;1.50;;
79644;SDS011;69117;47.148;18.954;2023-05-16T09:34:07;2.10;;;1.23;;
79644;SDS011;69117;47.148;18.954;2023-05-16T09:37:12;2.03;;;1.10;;
79644;SDS011;69117;47.148;18.954;2023-05-16T09:40:14;3.85;;;1.95;;
79644;SDS011;69117;47.148;18.954;2023-05-16T09:43:16;2.22;;;1.50;;
79644;SDS011;69117;47.148;18.954;2023-05-16T09:46:23;2.53;;;1.38;;
79644;SDS011;69117;47.148;18.954;2023-05-16T09:49:26;3.88;;;1.92;;
79644;SDS011;69117;47.148;18.954;2023-05-16T09:52:28;2.58;;;1.52;;
79644;SDS011;69117;47.148;18.954;2023-05-16T09:55:30;2.67;;;1.67;;
79644;SDS011;69117;47.148;18.954;2023-05-16T09:58:33;3.35;;;2.10;;
79644;SDS011;69117;47.148;18.954;2023-05-16T10:01:36;4.30;;;2.03;;
79644;SDS011;69117;47.148;18.954;2023-05-16T10:04:38;3.60;;;1.83;;
79644;SDS011;69117;47.148;18.954;2023-05-16T10:07:40;5.38;;;2.90;;
79644;SDS011;69117;47.148;18.954;2023-05-16T10:10:43;5.25;;;2.83;;
79644;SDS011;69117;47.148;18.954;2023-05-16T10:13:45;3.65;;;2.13;;
79644;SDS011;69117;47.148;18.954;2023-05-16T10:16:53;4.00;;;2.28;;
79644;SDS011;69117;47.148;18.954;2023-05-16T10:19:57;4.93;;;3.03;;
79644;SDS011;69117;47.148;18.954;2023-05-16T10:23:06;4.22;;;2.70;;
79644;SDS011;69117;47.148;18.954;2023-05-16T10:26:10;4.35;;;2.45;;
79644;SDS011;69117;47.148;18.954;2023-05-16T10:29:14;3.85;;;2.70;;
79644;SDS011;69117;47.148;18.954;2023-05-16T10:32:16;6.88;;;3.08;;
79644;SDS011;69117;47.148;18.954;2023-05-16T10:35:19;4.20;;;2.47;;
79644;SDS011;69117;47.148;18.954;2023-05-16T10:38:22;5.45;;;2.40;;
79644;SDS011;69117;47.148;18.954;2023-05-16T10:41:24;5.38;;;2.72;;
79644;SDS011;69117;47.148;18.954;2023-05-16T10:44:26;6.05;;;2.88;;
79644;SDS011;69117;47.148;18.954;2023-05-16T10:47:32;8.95;;;3.47;;
79644;SDS011;69117;47.148;18.954;2023-05-16T10:53:46;4.07;;;2.35;;
79644;SDS011;69117;47.148;18.954;2023-05-16T10:56:54;5.22;;;3.88;;
79644;SDS011;69117;47.148;18.954;2023-05-16T10:59:56;5.78;;;3.42;;
79644;SDS011;69117;47.148;18.954;2023-05-16T11:03:05;7.03;;;3.45;;
79644;SDS011;69117;47.148;18.954;2023-05-16T11:06:20;6.00;;;3.88;;
79644;SDS011;69117;47.148;18.954;2023-05-16T11:09:25;8.65;;;4.03;;
79644;SDS011;69117;47.148;18.954;2023-05-16T11:12:49;6.53;;;3.75;;
79644;SDS011;69117;47.148;18.954;2023-05-16T11:15:50;6.93;;;3.75;;
79644;SDS011;69117;47.148;18.954;2023-05-16T11:19:12;7.75;;;4.07;;
79644;SDS011;69117;47.148;18.954;2023-05-16T11:22:21;5.45;;;4.05;;
79644;SDS011;69117;47.148;18.954;2023-05-16T11:25:34;8.40;;;4.45;;
79644;SDS011;69117;47.148;18.954;2023-05-16T11:28:39;6.90;;;3.85;;
79644;SDS011;69117;47.148;18.954;2023-05-16T11:31:41;7.13;;;4.53;;
79644;SDS011;69117;47.148;18.954;2023-05-16T11:34:42;6.45;;;4.05;;
79644;SDS011;69117;47.148;18.954;2023-05-16T11:37:46;6.13;;;3.90;;
79644;SDS011;69117;47.148;18.954;2023-05-16T11:40:48;9.50;;;5.10;;
79644;SDS011;69117;47.148;18.954;2023-05-16T11:43:49;11.55;;;4.80;;
79644;SDS011;69117;47.148;18.954;2023-05-16T11:46:51;9.23;;;4.53;;
79644;SDS011;69117;47.148;18.954;2023-05-16T11:49:56;8.90;;;4.63;;
79644;SDS011;69117;47.148;18.954;2023-05-16T11:52:58;7.30;;;4.07;;
79644;SDS011;69117;47.148;18.954;2023-05-16T11:56:00;6.65;;;4.18;;
79644;SDS011;69117;47.148;18.954;2023-05-16T11:59:02;7.25;;;4.18;;
79644;SDS011;69117;47.148;18.954;2023-05-16T12:02:04;6.35;;;3.92;;
79644;SDS011;69117;47.148;18.954;2023-05-16T12:05:09;6.68;;;3.88;;
79644;SDS011;69117;47.148;18.954;2023-05-16T12:08:11;8.82;;;4.20;;
79644;SDS011;69117;47.148;18.954;2023-05-16T12:11:14;10.27;;;5.47;;
79644;SDS011;69117;47.148;18.954;2023-05-16T12:14:15;7.13;;;4.05;;
79644;SDS011;69117;47.148;18.954;2023-05-16T12:17:17;7.47;;;4.10;;
79644;SDS011;69117;47.148;18.954;2023-05-16T12:20:20;5.85;;;3.95;;
79644;SDS011;69117;47.148;18.954;2023-05-16T12:23:22;6.13;;;4.53;;
79644;SDS011;69117;47.148;18.954;2023-05-16T12:26:24;8.18;;;4.13;;
79644;SDS011;69117;47.148;18.954;2023-05-16T12:29:27;8.88;;;4.45;;
79644;SDS011;69117;47.148;18.954;2023-05-16T12:32:35;8.13;;;4.40;;
79644;SDS011;69117;47.148;18.954;2023-05-16T12:35:41;10.05;;;5.15;;
79644;SDS011;69117;47.148;18.954;2023-05-16T12:38:47;11.05;;;5.38;;
79644;SDS011;69117;47.148;18.954;2023-05-16T12:41:49;9.45;;;5.22;;
79644;SDS011;69117;47.148;18.954;2023-05-16T12:44:54;8.60;;;4.80;;
79644;SDS011;69117;47.148;18.954;2023-05-16T12:47:56;7.07;;;4.20;;
79644;SDS011;69117;47.148;18.954;2023-05-16T12:51:07;6.28;;;4.10;;
79644;SDS011;69117;47.148;18.954;2023-05-16T12:54:14;7.85;;;4.93;;
79644;SDS011;69117;47.148;18.954;2023-05-16T12:57:15;7.03;;;4.75;;
79644;SDS011;69117;47.148;18.954;2023-05-16T13:00:18;9.70;;;4.88;;
79644;SDS011;69117;47.148;18.954;2023-05-16T13:03:20;9.65;;;5.45;;
79644;SDS011;69117;47.148;18.954;2023-05-16T13:06:22;7.55;;;5.57;;
79644;SDS011;69117;47.148;18.954;2023-05-16T13:09:24;10.65;;;5.78;;
79644;SDS011;69117;47.148;18.954;2023-05-16T13:15:32;6.90;;;4.00;;
79644;SDS011;69117;47.148;18.954;2023-05-16T13:18:34;7.75;;;4.82;;
79644;SDS011;69117;47.148;18.954;2023-05-16T13:21:36;5.78;;;4.50;;
79644;SDS011;69117;47.148;18.954;2023-05-16T13:24:38;8.02;;;4.72;;
79644;SDS011;69117;47.148;18.954;2023-05-16T13:27:40;7.47;;;4.75;;
79644;SDS011;69117;47.148;18.954;2023-05-16T13:30:42;6.72;;;4.50;;
79644;SDS011;69117;47.148;18.954;2023-05-16T13:33:43;7.75;;;4.55;;
79644;SDS011;69117;47.148;18.954;2023-05-16T13:36:45;9.05;;;3.97;;
79644;SDS011;69117;47.148;18.954;2023-05-16T13:39:55;6.30;;;4.47;;
79644;SDS011;69117;47.148;18.954;2023-05-16T13:42:56;10.20;;;4.78;;
79644;SDS011;69117;47.148;18.954;2023-05-16T13:45:58;8.05;;;4.32;;
79644;SDS011;69117;47.148;18.954;2023-05-16T13:49:00;6.97;;;4.32;;
79644;SDS011;69117;47.148;18.954;2023-05-16T13:52:02;7.35;;;4.65;;
79644;SDS011;69117;47.148;18.954;2023-05-16T13:55:04;6.43;;;4.18;;
79644;SDS011;69117;47.148;18.954;2023-05-16T13:58:07;7.72;;;6.00;;
79644;SDS011;69117;47.148;18.954;2023-05-16T14:01:08;6.22;;;4.28;;
79644;SDS011;69117;47.148;18.954;2023-05-16T14:04:10;8.10;;;5.13;;
79644;SDS011;69117;47.148;18.954;2023-05-16T14:07:12;5.80;;;4.38;;
79644;SDS011;69117;47.148;18.954;2023-05-16T14:10:14;6.07;;;4.00;;
79644;SDS011;69117;47.148;18.954;2023-05-16T14:13:15;7.65;;;4.65;;
79644;SDS011;69117;47.148;18.954;2023-05-16T14:16:17;9.25;;;4.85;;
79644;SDS011;69117;47.148;18.954;2023-05-16T14:19:19;8.85;;;5.00;;
79644;SDS011;69117;47.148;18.954;2023-05-16T14:22:21;7.30;;;4.72;;
79644;SDS011;69117;47.148;18.954;2023-05-16T14:25:22;7.20;;;5.32;;
79644;SDS011;69117;47.148;18.954;2023-05-16T14:28:24;8.27;;;5.15;;
79644;SDS011;69117;47.148;18.954;2023-05-16T14:31:26;9.02;;;4.97;;
79644;SDS011;69117;47.148;18.954;2023-05-16T14:34:27;7.22;;;5.00;;
79644;SDS011;69117;47.148;18.954;2023-05-16T14:37:29;10.73;;;5.15;;
79644;SDS011;69117;47.148;18.954;2023-05-16T14:40:31;6.35;;;4.70;;
79644;SDS011;69117;47.148;18.954;2023-05-16T14:43:34;8.63;;;4.80;;
79644;SDS011;69117;47.148;18.954;2023-05-16T14:46:36;9.50;;;5.57;;
79644;SDS011;69117;47.148;18.954;2023-05-16T14:49:37;9.27;;;5.60;;
79644;SDS011;69117;47.148;18.954;2023-05-16T14:52:40;8.65;;;4.97;;
79644;SDS011;69117;47.148;18.954;2023-05-16T14:55:42;7.30;;;5.43;;
79644;SDS011;69117;47.148;18.954;2023-05-16T14:58:44;8.95;;;5.65;;
79644;SDS011;69117;47.148;18.954;2023-05-16T15:01:46;7.75;;;5.35;;
79644;SDS011;69117;47.148;18.954;2023-05-16T15:04:48;8.95;;;5.35;;
79644;SDS011;69117;47.148;18.954;2023-05-16T15:07:50;12.35;;;5.68;;
79644;SDS011;69117;47.148;18.954;2023-05-16T15:10:52;10.35;;;5.78;;
79644;SDS011;69117;47.148;18.954;2023-05-16T15:13:53;9.15;;;5.63;;
79644;SDS011;69117;47.148;18.954;2023-05-16T15:16:56;10.40;;;6.18;;
79644;SDS011;69117;47.148;18.954;2023-05-16T15:19:58;8.63;;;5.85;;
79644;SDS011;69117;47.148;18.954;2023-05-16T15:22:59;9.02;;;6.07;;
79644;SDS011;69117;47.148;18.954;2023-05-16T15:26:01;11.20;;;6.43;;
79644;SDS011;69117;47.148;18.954;2023-05-16T15:29:03;11.02;;;6.05;;
79644;SDS011;69117;47.148;18.954;2023-05-16T15:32:04;11.13;;;6.40;;
79644;SDS011;69117;47.148;18.954;2023-05-16T15:35:07;11.45;;;6.05;;
79644;SDS011;69117;47.148;18.954;2023-05-16T15:38:08;11.15;;;6.10;;
79644;SDS011;69117;47.148;18.954;2023-05-16T15:41:10;15.80;;;6.55;;
79644;SDS011;69117;47.148;18.954;2023-05-16T15:44:31;11.00;;;6.45;;
79644;SDS011;69117;47.148;18.954;2023-05-16T15:47:34;10.68;;;6.63;;
79644;SDS011;69117;47.148;18.954;2023-05-16T15:50:36;10.63;;;6.72;;
79644;SDS011;69117;47.148;18.954;2023-05-16T15:53:38;11.00;;;7.07;;
79644;SDS011;69117;47.148;18.954;2023-05-16T15:56:39;12.00;;;6.63;;
79644;SDS011;69117;47.148;18.954;2023-05-16T15:59:41;10.30;;;6.63;;
79644;SDS011;69117;47.148;18.954;2023-05-16T16:02:43;11.35;;;6.43;;
79644;SDS011;69117;47.148;18.954;2023-05-16T16:05:45;12.95;;;6.90;;
79644;SDS011;69117;47.148;18.954;2023-05-16T16:08:48;10.88;;;6.20;;
79644;SDS011;69117;47.148;18.954;2023-05-16T16:11:50;8.82;;;6.38;;
79644;SDS011;69117;47.148;18.954;2023-05-16T16:14:56;11.73;;;6.25;;
79644;SDS011;69117;47.148;18.954;2023-05-16T16:17:58;9.70;;;5.13;;
79644;SDS011;69117;47.148;18.954;2023-05-16T16:20:59;9.15;;;5.20;;
79644;SDS011;69117;47.148;18.954;2023-05-16T16:24:01;8.57;;;5.07;;
79644;SDS011;69117;47.148;18.954;2023-05-16T16:27:03;12.02;;;5.78;;
79644;SDS011;69117;47.148;18.954;2023-05-16T16:30:05;10.68;;;6.38;;
79644;SDS011;69117;47.148;18.954;2023-05-16T16:33:07;10.60;;;5.82;;
79644;SDS011;69117;47.148;18.954;2023-05-16T16:36:09;11.90;;;6.15;;
79644;SDS011;69117;47.148;18.954;2023-05-16T16:39:12;12.75;;;6.55;;
79644;SDS011;69117;47.148;18.954;2023-05-16T16:42:14;10.07;;;5.85;;
79644;SDS011;69117;47.148;18.954;2023-05-16T16:45:15;12.52;;;6.85;;
79644;SDS011;69117;47.148;18.954;2023-05-16T16:48:17;9.50;;;5.93;;
79644;SDS011;69117;47.148;18.954;2023-05-16T16:51:19;9.95;;;6.40;;
79644;SDS011;69117;47.148;18.954;2023-05-16T16:54:21;14.77;;;6.57;;
79644;SDS011;69117;47.148;18.954;2023-05-16T16:57:23;11.80;;;5.88;;
79644;SDS011;69117;47.148;18.954;2023-05-16T17:00:25;10.55;;;5.70;;
79644;SDS011;69117;47.148;18.954;2023-05-16T17:03:27;11.80;;;6.70;;
79644;SDS011;69117;47.148;18.954;2023-05-16T17:06:29;10.55;;;6.32;;
79644;SDS011;69117;47.148;18.954;2023-05-16T17:09:31;12.13;;;6.32;;
79644;SDS011;69117;47.148;18.954;2023-05-16T17:12:33;12.38;;;6.13;;
79644;SDS011;69117;47.148;18.954;2023-05-16T17:15:35;10.75;;;5.88;;
79644;SDS011;69117;47.148;18.954;2023-05-16T17:18:37;11.52;;;5.55;;
79644;SDS011;69117;47.148;18.954;2023-05-16T17:21:40;9.93;;;6.30;;
79644;SDS011;69117;47.148;18.954;2023-05-16T17:24:43;9.95;;;5.40;;
79644;SDS011;69117;47.148;18.954;2023-05-16T17:27:45;11.23;;;6.22;;
79644;SDS011;69117;47.148;18.954;2023-05-16T17:30:47;12.45;;;6.78;;
79644;SDS011;69117;47.148;18.954;2023-05-16T17:33:49;10.27;;;6.05;;
79644;SDS011;69117;47.148;18.954;2023-05-16T17:36:51;14.15;;;6.75;;
79644;SDS011;69117;47.148;18.954;2023-05-16T17:39:53;14.85;;;6.53;;
79644;SDS011;69117;47.148;18.954;2023-05-16T17:42:54;9.35;;;5.93;;
79644;SDS011;69117;47.148;18.954;2023-05-16T17:45:56;10.73;;;6.53;;
79644;SDS011;69117;47.148;18.954;2023-05-16T17:48:58;12.05;;;5.40;;
79644;SDS011;69117;47.148;18.954;2023-05-16T17:52:00;12.43;;;6.53;;
79644;SDS011;69117;47.148;18.954;2023-05-16T17:55:01;12.63;;;5.95;;
79644;SDS011;69117;47.148;18.954;2023-05-16T17:58:04;15.27;;;7.60;;
79644;SDS011;69117;47.148;18.954;2023-05-16T18:01:07;12.25;;;5.65;;
79644;SDS011;69117;47.148;18.954;2023-05-16T18:04:09;8.63;;;5.88;;
79644;SDS011;69117;47.148;18.954;2023-05-16T18:07:11;9.13;;;6.03;;
79644;SDS011;69117;47.148;18.954;2023-05-16T18:10:13;14.80;;;7.82;;